»·PEaware :: DAL434 KABQ-KONT

DAL434 :: KABQ-KONT

FLIGHT INFORMATION

Flight Status: Arrived
Operator:
Delta Air Lines
More flights by this operator :: More flights under this callsign
Pilot: Drew Hood (3199)
Aircraft: CANADAIR CL-600 CRJ-200
(CRJ2)
More flights by this aircraft type
Origin: KABQ Albuquerque Intl Sunport
United States
Destination: KONT Ontario Intl
United States
More flights between these airports :: More routes between these airports
Route: +RDRNR3 ZUN J6 DRK HIPPI J10 TNP PSP SETER4
File this flight plan on PilotEdge
Remarks:
Altitude:
(Current/Filed)
26,000ft
Speed:
(Current/Filed)
425kts
Departed: 09-Jan-17 06:13 PM
Arrived: 09-Jan-17 08:14 PM
Distance/Time
Traveled:
546nm/2:01
Distance/Time
To Go:
Arrived

Flight Plot

Page will automatically refresh every two minutes.


Map Options




Map Legend


Flown Route
Filed Route
Departure Airport
Arrival Airport
Navaid (VOR, NDB)
Fix

Horizontal Profiles

Position Reports

Time Latitude Longitude Heading Altitude Ground
Speed
09-Jan-17 17:25 35.046943 -106.615893 12 5359ft 0kts
09-Jan-17 17:26 35.046943 -106.615893 12 5359ft 0kts
09-Jan-17 17:27 35.046943 -106.615893 12 5359ft 0kts
09-Jan-17 17:28 35.046943 -106.615893 12 5359ft 0kts
09-Jan-17 17:29 35.046943 -106.615893 12 5359ft 0kts
09-Jan-17 17:30 35.046943 -106.615893 12 5359ft 0kts
09-Jan-17 17:31 35.046943 -106.615893 12 5359ft 0kts
09-Jan-17 17:32 35.046943 -106.615893 12 5359ft 0kts
09-Jan-17 17:34 35.046943 -106.615893 12 5359ft 0kts
09-Jan-17 17:38 35.046939 -106.616388 11 5359ft 0kts
09-Jan-17 17:39 35.046939 -106.616388 11 5359ft 0kts
09-Jan-17 17:40 35.046939 -106.616388 11 5359ft 0kts
09-Jan-17 17:41 35.046939 -106.616388 11 5359ft 0kts
09-Jan-17 17:42 35.046939 -106.616388 11 5359ft 0kts
09-Jan-17 17:43 35.046939 -106.616388 11 5359ft 0kts
09-Jan-17 17:44 35.046939 -106.616388 11 5359ft 0kts
09-Jan-17 17:45 35.046939 -106.616388 11 5359ft 0kts
09-Jan-17 17:46 35.046939 -106.616388 11 5359ft 0kts
09-Jan-17 17:47 35.046939 -106.616388 11 5359ft 0kts
09-Jan-17 17:48 35.046939 -106.616388 11 5359ft 0kts
09-Jan-17 17:49 35.046939 -106.616388 11 5359ft 0kts
09-Jan-17 17:50 35.046939 -106.616388 11 5359ft 0kts
09-Jan-17 17:51 35.046939 -106.616388 11 5359ft 0kts
09-Jan-17 17:52 35.046939 -106.616388 11 5359ft 0kts
09-Jan-17 17:53 35.046939 -106.616388 11 5359ft 0kts
09-Jan-17 17:54 35.046939 -106.616388 11 5359ft 0kts
09-Jan-17 17:55 35.046939 -106.616388 11 5359ft 0kts
09-Jan-17 17:56 35.046939 -106.616388 11 5359ft 0kts
09-Jan-17 17:57 35.046939 -106.616388 11 5359ft 0kts
09-Jan-17 17:58 35.046939 -106.616388 11 5359ft 0kts
09-Jan-17 17:59 35.046939 -106.616388 11 5359ft 0kts
09-Jan-17 18:00 35.046939 -106.616388 11 5359ft 0kts
09-Jan-17 18:01 35.046939 -106.616388 11 5359ft 0kts
09-Jan-17 18:02 35.046835 -106.616414 10 5359ft 1kts
09-Jan-17 18:03 35.046348 -106.616273 305 5359ft 1kts
09-Jan-17 18:04 35.046293 -106.616131 288 5359ft 0kts
09-Jan-17 18:05 35.046293 -106.616131 288 5359ft 0kts
09-Jan-17 18:06 35.046293 -106.616131 288 5359ft 0kts
09-Jan-17 18:07 35.046293 -106.616131 288 5359ft 0kts
09-Jan-17 18:08 35.046293 -106.616131 288 5359ft 0kts
09-Jan-17 18:09 35.046293 -106.616131 288 5359ft 0kts
09-Jan-17 18:10 35.045569 -106.618066 269 5359ft 13kts
09-Jan-17 18:11 35.045305 -106.621333 199 5359ft 2kts
09-Jan-17 18:12 35.045093 -106.621392 185 5359ft 6kts
09-Jan-17 18:13 35.044279 -106.609297 89 5359ft 120kts
09-Jan-17 18:14 35.043749 -106.549527 81 6182ft 203kts
09-Jan-17 18:15 35.082047 -106.543837 278 7623ft 186kts
09-Jan-17 18:16 35.082472 -106.604994 268 9902ft 181kts
09-Jan-17 18:17 35.085683 -106.666126 268 11838ft 182kts
09-Jan-17 18:18 35.089582 -106.727406 268 13574ft 183kts
09-Jan-17 18:19 35.096312 -106.789198 272 15148ft 188kts
09-Jan-17 18:20 35.105620 -106.852027 272 16623ft 189kts
09-Jan-17 18:21 35.107896 -106.913806 255 17940ft 183kts
09-Jan-17 18:22 35.096585 -106.973705 253 19160ft 184kts
09-Jan-17 18:23 35.084609 -107.034074 253 20268ft 186kts
09-Jan-17 18:24 35.072501 -107.094308 254 21263ft 188kts
09-Jan-17 18:25 35.061327 -107.149668 253 22093ft 190kts
09-Jan-17 18:26 35.049776 -107.206721 253 22876ft 192kts
09-Jan-17 18:27 35.037955 -107.267566 261 23636ft 195kts
09-Jan-17 18:28 35.035534 -107.334093 262 24356ft 198kts
09-Jan-17 18:29 35.033304 -107.401051 262 25002ft 200kts
09-Jan-17 18:30 35.031118 -107.468850 262 25603ft 202kts
09-Jan-17 18:31 35.028880 -107.537268 262 26108ft 206kts
09-Jan-17 18:32 35.026441 -107.610440 263 26118ft 224kts
09-Jan-17 18:33 35.024031 -107.687051 262 26132ft 234kts
09-Jan-17 18:34 35.021385 -107.768104 262 26132ft 246kts
09-Jan-17 18:35 35.018426 -107.853332 263 26129ft 259kts
09-Jan-17 18:36 35.015227 -107.942867 263 26127ft 272kts
09-Jan-17 18:37 35.011783 -108.036678 263 26126ft 284kts
09-Jan-17 18:38 35.008159 -108.134256 263 26123ft 294kts
09-Jan-17 18:39 35.004286 -108.235324 263 26121ft 302kts
09-Jan-17 18:40 35.000289 -108.338316 263 26120ft 309kts
09-Jan-17 18:41 34.996070 -108.443957 263 26118ft 315kts
09-Jan-17 18:42 34.991718 -108.551076 263 26117ft 319kts
09-Jan-17 18:43 34.987204 -108.659625 263 26124ft 323kts
09-Jan-17 18:44 34.982856 -108.769287 263 26148ft 328kts
09-Jan-17 18:45 34.978023 -108.881243 263 26151ft 333kts
09-Jan-17 18:46 34.972994 -108.994448 263 26154ft 336kts
09-Jan-17 18:47 34.967840 -109.108278 263 26161ft 339kts
09-Jan-17 18:48 34.961177 -109.222909 262 26164ft 340kts
09-Jan-17 18:49 34.953553 -109.337680 262 26163ft 341kts
09-Jan-17 18:50 34.945774 -109.452929 262 26162ft 342kts
09-Jan-17 18:51 34.937865 -109.568414 262 26158ft 342kts
09-Jan-17 18:52 34.930019 -109.683235 262 26173ft 343kts
09-Jan-17 18:53 34.922022 -109.799166 262 26184ft 345kts
09-Jan-17 18:54 34.913685 -109.916199 262 26200ft 350kts
09-Jan-17 18:55 34.905032 -110.035399 262 26165ft 357kts
09-Jan-17 18:56 34.896299 -110.154661 262 26121ft 362kts
09-Jan-17 18:57 34.887129 -110.277684 262 26109ft 366kts
09-Jan-17 18:58 34.877801 -110.401625 262 26108ft 369kts
09-Jan-17 18:59 34.868263 -110.526340 262 26105ft 371kts
09-Jan-17 19:00 34.858564 -110.651042 262 26104ft 372kts
09-Jan-17 19:01 34.849047 -110.776269 262 26116ft 375kts
09-Jan-17 19:02 34.838962 -110.902904 262 26114ft 377kts
09-Jan-17 19:03 34.828682 -111.029599 264 26112ft 378kts
09-Jan-17 19:04 34.818410 -111.155798 265 26113ft 377kts
09-Jan-17 19:05 34.807990 -111.281897 264 26151ft 375kts
09-Jan-17 19:06 34.797455 -111.407383 264 26181ft 374kts
09-Jan-17 19:07 34.787284 -111.527264 264 26182ft 374kts
09-Jan-17 19:08 34.776543 -111.652186 264 26181ft 374kts
09-Jan-17 19:09 34.765997 -111.777029 264 26196ft 375kts
09-Jan-17 19:10 34.754893 -111.903333 264 26194ft 376kts
09-Jan-17 19:11 34.743675 -112.029372 264 26192ft 377kts
09-Jan-17 19:12 34.732302 -112.155704 264 26179ft 377kts
09-Jan-17 19:13 34.720780 -112.281854 264 26153ft 377kts
09-Jan-17 19:14 34.709139 -112.408058 264 26139ft 377kts
09-Jan-17 19:15 34.696137 -112.533986 263 26137ft 376kts
09-Jan-17 19:16 34.681577 -112.658097 262 26141ft 376kts
09-Jan-17 19:17 34.667048 -112.783414 263 26150ft 377kts
09-Jan-17 19:18 34.651985 -112.909174 264 26147ft 378kts
09-Jan-17 19:19 34.636726 -113.035521 266 26145ft 379kts
09-Jan-17 19:20 34.621420 -113.161695 265 26133ft 379kts
09-Jan-17 19:21 34.605958 -113.287699 266 26128ft 379kts
09-Jan-17 19:22 34.590320 -113.414320 266 26116ft 379kts
09-Jan-17 19:23 34.574662 -113.539487 265 26099ft 379kts
09-Jan-17 19:24 34.557672 -113.660824 260 26101ft 382kts
09-Jan-17 19:25 34.532771 -113.786128 261 26097ft 383kts
09-Jan-17 19:26 34.507345 -113.911337 261 26096ft 384kts
09-Jan-17 19:27 34.481629 -114.037083 261 26090ft 385kts
09-Jan-17 19:28 34.455823 -114.162558 261 26089ft 385kts
09-Jan-17 19:29 34.429968 -114.287625 261 26087ft 384kts
09-Jan-17 19:30 34.404008 -114.412525 261 26083ft 384kts
09-Jan-17 19:31 34.377859 -114.537529 261 26079ft 384kts
09-Jan-17 19:32 34.351847 -114.661460 261 26089ft 383kts
09-Jan-17 19:33 34.326008 -114.785293 261 26097ft 385kts
09-Jan-17 19:34 34.299428 -114.910510 261 26096ft 386kts
09-Jan-17 19:35 34.272704 -115.035549 261 26092ft 387kts
09-Jan-17 19:36 34.245735 -115.161105 261 26087ft 388kts
09-Jan-17 19:37 34.218513 -115.287310 261 26113ft 389kts
09-Jan-17 19:38 34.191313 -115.411917 261 26153ft 389kts
09-Jan-17 19:39 34.163515 -115.537888 261 26170ft 389kts
09-Jan-17 19:40 34.136825 -115.658403 261 26172ft 389kts
09-Jan-17 19:41 34.114279 -115.761115 260 26181ft 392kts
09-Jan-17 19:42 34.071331 -115.882490 253 25606ft 394kts
09-Jan-17 19:43 34.070256 -115.885417 253 25555ft 394kts
09-Jan-17 19:44 34.070256 -115.885417 253 25555ft 394kts
09-Jan-17 19:45 34.070256 -115.885417 253 25555ft 394kts
09-Jan-17 19:46 34.070256 -115.885417 253 25555ft 394kts
09-Jan-17 19:47 34.070256 -115.885417 253 25555ft 394kts
09-Jan-17 19:48 34.070256 -115.885417 253 25555ft 394kts
09-Jan-17 19:49 34.070256 -115.885417 253 25555ft 394kts
09-Jan-17 19:50 34.055950 -115.924678 253 25068ft 390kts
09-Jan-17 19:51 34.012829 -116.042312 253 24148ft 376kts
09-Jan-17 19:52 33.971215 -116.155599 252 23411ft 368kts
09-Jan-17 19:53 33.930212 -116.266831 252 21361ft 362kts
09-Jan-17 19:54 33.890126 -116.375239 251 19518ft 355kts
09-Jan-17 19:55 33.869632 -116.485620 280 17714ft 338kts
09-Jan-17 19:56 33.877712 -116.597190 275 16048ft 335kts
09-Jan-17 19:57 33.883042 -116.705021 274 14624ft 331kts
09-Jan-17 19:58 33.888088 -116.814136 273 13962ft 324kts
09-Jan-17 19:59 33.892714 -116.917950 273 13984ft 306kts
09-Jan-17 20:00 33.897065 -117.017381 273 13991ft 292kts
09-Jan-17 20:01 33.894784 -117.111973 252 13988ft 281kts
09-Jan-17 20:02 33.838495 -117.170015 211 12435ft 283kts
09-Jan-17 20:03 33.770871 -117.213204 230 10682ft 273kts
09-Jan-17 20:04 33.754171 -117.293776 290 8939ft 259kts
09-Jan-17 20:05 33.813308 -117.327481 2 7389ft 265kts
09-Jan-17 20:06 33.885586 -117.321114 1 6045ft 260kts
09-Jan-17 20:07 33.956357 -117.316528 1 5001ft 242kts
09-Jan-17 20:08 34.013499 -117.305808 11 5028ft 183kts
09-Jan-17 20:09 34.046359 -117.332747 293 4558ft 174kts
09-Jan-17 20:10 34.054779 -117.389200 272 4007ft 173kts
09-Jan-17 20:11 34.054830 -117.448797 271 3171ft 184kts
09-Jan-17 20:12 34.054891 -117.506963 270 2219ft 166kts
09-Jan-17 20:13 34.054933 -117.559640 270 1366ft 151kts
09-Jan-17 20:14 34.054958 -117.600336 270 948ft 30kts
09-Jan-17 20:15 34.055778 -117.605602 310 948ft 8kts
09-Jan-17 20:16 34.058461 -117.608034 39 948ft 6kts
09-Jan-17 20:17 34.059901 -117.607354 305 948ft 0kts
09-Jan-17 20:18 34.059901 -117.607354 305 948ft 0kts
09-Jan-17 20:19 34.059901 -117.607354 305 948ft 0kts

Navigation Log

Ident Type
1. KABQ Airport
2. RDRNR Fix
3. TYILR Fix
4. RDRNR Fix
5. SPEDY Fix
6. PNYON Fix
7. ZUN Navaid
8. ZUN Navaid
9. PYRIT Fix
10. DRK Navaid
11. HIPPI Fix
12. CADEZ Fix
13. TNP Navaid
14. PSP Navaid
15. AHLEX Fix
16. BANDS Fix
17. SETER Fix
18. BERDU Fix
19. PDZ Navaid
20. KONT Airport